sensor_id;sensor_type;location;lat;lon;timestamp;temperature;humidity
53208;DHT22;39093;52.788;6.940;2023-04-01T00:01:46;10.00;99.90
53208;DHT22;39093;52.788;6.940;2023-04-01T00:04:13;10.00;99.90
53208;DHT22;39093;52.788;6.940;2023-04-01T00:06:40;10.00;99.90
53208;DHT22;39093;52.788;6.940;2023-04-01T00:09:07;10.00;99.90
53208;DHT22;39093;52.788;6.940;2023-04-01T00:11:34;10.00;99.90
53208;DHT22;39093;52.788;6.940;2023-04-01T00:14:01;10.00;99.90
53208;DHT22;39093;52.788;6.940;2023-04-01T00:16:28;10.00;99.90
53208;DHT22;39093;52.788;6.940;2023-04-01T00:18:55;10.00;99.90
53208;DHT22;39093;52.788;6.940;2023-04-01T00:21:22;9.90;99.90
53208;DHT22;39093;52.788;6.940;2023-04-01T00:23:50;10.00;99.90
53208;DHT22;39093;52.788;6.940;2023-04-01T00:26:18;10.00;99.90
53208;DHT22;39093;52.788;6.940;2023-04-01T00:28:47;10.00;99.90
53208;DHT22;39093;52.788;6.940;2023-04-01T00:31:17;9.90;99.90
53208;DHT22;39093;52.788;6.940;2023-04-01T00:33:44;9.90;99.90
53208;DHT22;39093;52.788;6.940;2023-04-01T00:36:15;10.00;99.90
53208;DHT22;39093;52.788;6.940;2023-04-01T00:38:43;10.00;99.90
53208;DHT22;39093;52.788;6.940;2023-04-01T00:41:12;9.90;99.90
53208;DHT22;39093;52.788;6.940;2023-04-01T00:43:42;10.00;99.90
53208;DHT22;39093;52.788;6.940;2023-04-01T00:46:09;10.00;99.90
53208;DHT22;39093;52.788;6.940;2023-04-01T00:48:39;9.90;99.90
53208;DHT22;39093;52.788;6.940;2023-04-01T00:51:23;9.90;99.90
53208;DHT22;39093;52.788;6.940;2023-04-01T00:53:54;9.90;99.90
53208;DHT22;39093;52.788;6.940;2023-04-01T00:56:25;10.00;99.90
53208;DHT22;39093;52.788;6.940;2023-04-01T00:59:04;9.90;99.90
53208;DHT22;39093;52.788;6.940;2023-04-01T01:01:32;9.90;99.90
53208;DHT22;39093;52.788;6.940;2023-04-01T01:03:59;10.00;99.90
53208;DHT22;39093;52.788;6.940;2023-04-01T01:06:46;9.90;99.90
53208;DHT22;39093;52.788;6.940;2023-04-01T01:12:45;9.90;99.90
53208;DHT22;39093;52.788;6.940;2023-04-01T01:15:32;9.90;99.90
53208;DHT22;39093;52.788;6.940;2023-04-01T01:18:47;9.90;99.90
53208;DHT22;39093;52.788;6.940;2023-04-01T01:21:16;9.80;99.90
53208;DHT22;39093;52.788;6.940;2023-04-01T01:29:49;9.90;99.90
53208;DHT22;39093;52.788;6.940;2023-04-01T01:37:43;9.90;99.90
53208;DHT22;39093;52.788;6.940;2023-04-01T01:40:13;9.90;99.90
53208;DHT22;39093;52.788;6.940;2023-04-01T01:42:46;9.90;99.90
53208;DHT22;39093;52.788;6.940;2023-04-01T01:45:15;9.90;99.90
53208;DHT22;39093;52.788;6.940;2023-04-01T01:47:45;9.90;99.90
53208;DHT22;39093;52.788;6.940;2023-04-01T01:50:14;9.90;99.90
53208;DHT22;39093;52.788;6.940;2023-04-01T01:52:42;9.80;99.90
53208;DHT22;39093;52.788;6.940;2023-04-01T01:55:30;9.80;99.90
53208;DHT22;39093;52.788;6.940;2023-04-01T01:58:02;9.90;99.90
53208;DHT22;39093;52.788;6.940;2023-04-01T02:00:32;9.90;99.90
53208;DHT22;39093;52.788;6.940;2023-04-01T02:03:00;9.90;99.90
53208;DHT22;39093;52.788;6.940;2023-04-01T02:05:29;9.90;99.90
53208;DHT22;39093;52.788;6.940;2023-04-01T02:08:02;9.80;99.90
53208;DHT22;39093;52.788;6.940;2023-04-01T02:10:35;9.90;99.90
53208;DHT22;39093;52.788;6.940;2023-04-01T02:13:09;9.90;99.90
53208;DHT22;39093;52.788;6.940;2023-04-01T02:15:42;9.80;99.90
53208;DHT22;39093;52.788;6.940;2023-04-01T02:18:12;9.80;99.90
53208;DHT22;39093;52.788;6.940;2023-04-01T02:20:40;9.80;99.90
53208;DHT22;39093;52.788;6.940;2023-04-01T02:23:08;9.80;99.90
53208;DHT22;39093;52.788;6.940;2023-04-01T02:25:36;9.80;99.90
53208;DHT22;39093;52.788;6.940;2023-04-01T02:28:06;9.80;99.90
53208;DHT22;39093;52.788;6.940;2023-04-01T02:30:35;9.80;99.90
53208;DHT22;39093;52.788;6.940;2023-04-01T02:33:04;9.80;99.90
53208;DHT22;39093;52.788;6.940;2023-04-01T02:35:35;9.80;99.90
53208;DHT22;39093;52.788;6.940;2023-04-01T02:38:03;9.80;99.90
53208;DHT22;39093;52.788;6.940;2023-04-01T02:40:50;9.80;99.90
53208;DHT22;39093;52.788;6.940;2023-04-01T02:43:18;9.80;99.90
53208;DHT22;39093;52.788;6.940;2023-04-01T02:45:46;9.80;99.90
53208;DHT22;39093;52.788;6.940;2023-04-01T02:48:13;9.80;99.90
53208;DHT22;39093;52.788;6.940;2023-04-01T02:50:41;9.80;99.90
53208;DHT22;39093;52.788;6.940;2023-04-01T02:53:08;9.80;99.90
53208;DHT22;39093;52.788;6.940;2023-04-01T02:55:35;9.80;99.90
53208;DHT22;39093;52.788;6.940;2023-04-01T02:58:02;9.80;99.90
53208;DHT22;39093;52.788;6.940;2023-04-01T03:00:29;9.80;99.90
53208;DHT22;39093;52.788;6.940;2023-04-01T03:02:56;9.80;99.90
53208;DHT22;39093;52.788;6.940;2023-04-01T03:05:23;9.80;99.90
53208;DHT22;39093;52.788;6.940;2023-04-01T03:07:50;9.70;99.90
53208;DHT22;39093;52.788;6.940;2023-04-01T03:10:17;9.70;99.90
53208;DHT22;39093;52.788;6.940;2023-04-01T03:12:44;9.80;99.90
53208;DHT22;39093;52.788;6.940;2023-04-01T03:15:12;9.80;99.90
53208;DHT22;39093;52.788;6.940;2023-04-01T03:17:41;9.80;99.90
53208;DHT22;39093;52.788;6.940;2023-04-01T03:20:09;9.70;99.90
53208;DHT22;39093;52.788;6.940;2023-04-01T03:22:37;9.80;99.90
53208;DHT22;39093;52.788;6.940;2023-04-01T03:25:07;9.70;99.90
53208;DHT22;39093;52.788;6.940;2023-04-01T03:27:35;9.80;99.90
53208;DHT22;39093;52.788;6.940;2023-04-01T03:30:03;9.80;99.90
53208;DHT22;39093;52.788;6.940;2023-04-01T03:32:31;9.80;99.90
53208;DHT22;39093;52.788;6.940;2023-04-01T03:34:58;9.80;99.90
53208;DHT22;39093;52.788;6.940;2023-04-01T03:37:26;9.80;99.90
53208;DHT22;39093;52.788;6.940;2023-04-01T03:39:53;9.80;99.90
53208;DHT22;39093;52.788;6.940;2023-04-01T03:42:20;9.80;99.90
53208;DHT22;39093;52.788;6.940;2023-04-01T03:44:47;9.70;99.90
53208;DHT22;39093;52.788;6.940;2023-04-01T03:47:14;9.70;99.90
53208;DHT22;39093;52.788;6.940;2023-04-01T03:49:41;9.70;99.90
53208;DHT22;39093;52.788;6.940;2023-04-01T03:52:11;9.80;99.90
53208;DHT22;39093;52.788;6.940;2023-04-01T03:54:38;9.70;99.90
53208;DHT22;39093;52.788;6.940;2023-04-01T03:57:05;9.80;99.90
53208;DHT22;39093;52.788;6.940;2023-04-01T03:59:32;9.70;99.90
53208;DHT22;39093;52.788;6.940;2023-04-01T04:01:59;9.70;99.90
53208;DHT22;39093;52.788;6.940;2023-04-01T04:04:26;9.70;99.90
53208;DHT22;39093;52.788;6.940;2023-04-01T04:06:54;9.70;99.90
53208;DHT22;39093;52.788;6.940;2023-04-01T04:09:21;9.70;99.90
53208;DHT22;39093;52.788;6.940;2023-04-01T04:11:48;9.70;99.90
53208;DHT22;39093;52.788;6.940;2023-04-01T04:14:15;9.70;99.90
53208;DHT22;39093;52.788;6.940;2023-04-01T04:16:42;9.70;99.90
53208;DHT22;39093;52.788;6.940;2023-04-01T04:19:09;9.80;99.90
53208;DHT22;39093;52.788;6.940;2023-04-01T04:21:36;9.70;99.90
53208;DHT22;39093;52.788;6.940;2023-04-01T04:24:03;9.70;99.90
53208;DHT22;39093;52.788;6.940;2023-04-01T04:26:30;9.70;99.90
53208;DHT22;39093;52.788;6.940;2023-04-01T04:28:57;9.70;99.90
53208;DHT22;39093;52.788;6.940;2023-04-01T04:31:24;9.70;99.90
53208;DHT22;39093;52.788;6.940;2023-04-01T04:33:52;9.80;99.90
53208;DHT22;39093;52.788;6.940;2023-04-01T04:36:20;9.70;99.90
53208;DHT22;39093;52.788;6.940;2023-04-01T04:38:48;9.70;99.90
53208;DHT22;39093;52.788;6.940;2023-04-01T04:41:16;9.80;99.90
53208;DHT22;39093;52.788;6.940;2023-04-01T04:43:53;9.80;99.90
53208;DHT22;39093;52.788;6.940;2023-04-01T04:46:21;9.70;99.90
53208;DHT22;39093;52.788;6.940;2023-04-01T04:48:48;9.70;99.90
53208;DHT22;39093;52.788;6.940;2023-04-01T04:51:16;9.70;99.90
53208;DHT22;39093;52.788;6.940;2023-04-01T04:53:44;9.70;99.90
53208;DHT22;39093;52.788;6.940;2023-04-01T04:56:11;9.70;99.90
53208;DHT22;39093;52.788;6.940;2023-04-01T04:58:39;9.80;99.90
53208;DHT22;39093;52.788;6.940;2023-04-01T05:01:11;9.70;99.90
53208;DHT22;39093;52.788;6.940;2023-04-01T05:03:38;9.70;99.90
53208;DHT22;39093;52.788;6.940;2023-04-01T05:06:06;9.70;99.90
53208;DHT22;39093;52.788;6.940;2023-04-01T05:08:34;9.70;99.90
53208;DHT22;39093;52.788;6.940;2023-04-01T05:11:02;9.70;99.90
53208;DHT22;39093;52.788;6.940;2023-04-01T05:13:29;9.70;99.90
53208;DHT22;39093;52.788;6.940;2023-04-01T05:15:56;9.70;99.90
53208;DHT22;39093;52.788;6.940;2023-04-01T05:18:23;9.70;99.90
53208;DHT22;39093;52.788;6.940;2023-04-01T05:20:52;9.70;99.90
53208;DHT22;39093;52.788;6.940;2023-04-01T05:23:20;9.70;99.90
53208;DHT22;39093;52.788;6.940;2023-04-01T05:25:49;9.70;99.90
53208;DHT22;39093;52.788;6.940;2023-04-01T05:28:16;9.70;99.90
53208;DHT22;39093;52.788;6.940;2023-04-01T05:30:44;9.70;99.90
53208;DHT22;39093;52.788;6.940;2023-04-01T05:33:11;9.70;99.90
53208;DHT22;39093;52.788;6.940;2023-04-01T05:35:40;9.70;99.90
53208;DHT22;39093;52.788;6.940;2023-04-01T05:38:07;9.70;99.90
53208;DHT22;39093;52.788;6.940;2023-04-01T05:40:34;9.70;99.90
53208;DHT22;39093;52.788;6.940;2023-04-01T05:43:01;9.70;99.90
53208;DHT22;39093;52.788;6.940;2023-04-01T05:45:28;9.70;99.90
53208;DHT22;39093;52.788;6.940;2023-04-01T05:47:55;9.70;99.90
53208;DHT22;39093;52.788;6.940;2023-04-01T05:50:22;9.80;99.90
53208;DHT22;39093;52.788;6.940;2023-04-01T05:52:49;9.70;99.90
53208;DHT22;39093;52.788;6.940;2023-04-01T05:55:16;9.80;99.90
53208;DHT22;39093;52.788;6.940;2023-04-01T05:57:45;9.80;99.90
53208;DHT22;39093;52.788;6.940;2023-04-01T06:00:13;9.70;99.90
53208;DHT22;39093;52.788;6.940;2023-04-01T06:02:40;9.70;99.90
53208;DHT22;39093;52.788;6.940;2023-04-01T06:05:14;9.70;99.90
53208;DHT22;39093;52.788;6.940;2023-04-01T06:07:41;9.80;99.90
53208;DHT22;39093;52.788;6.940;2023-04-01T06:10:19;9.70;99.90
53208;DHT22;39093;52.788;6.940;2023-04-01T06:13:00;9.70;99.90
53208;DHT22;39093;52.788;6.940;2023-04-01T06:15:36;9.80;99.90
53208;DHT22;39093;52.788;6.940;2023-04-01T06:18:13;9.70;99.90
53208;DHT22;39093;52.788;6.940;2023-04-01T06:21:21;9.80;99.90
53208;DHT22;39093;52.788;6.940;2023-04-01T06:26:50;9.80;99.90
53208;DHT22;39093;52.788;6.940;2023-04-01T06:38:09;9.90;99.90
53208;DHT22;39093;52.788;6.940;2023-04-01T06:43:57;9.90;99.90
53208;DHT22;39093;52.788;6.940;2023-04-01T06:46:31;9.80;99.90
53208;DHT22;39093;52.788;6.940;2023-04-01T06:54:36;9.90;99.90
53208;DHT22;39093;52.788;6.940;2023-04-01T06:59:54;10.00;99.90
53208;DHT22;39093;52.788;6.940;2023-04-01T07:02:34;10.00;99.90
53208;DHT22;39093;52.788;6.940;2023-04-01T07:05:05;10.00;99.90
53208;DHT22;39093;52.788;6.940;2023-04-01T07:07:43;10.00;99.90
53208;DHT22;39093;52.788;6.940;2023-04-01T07:13:02;10.00;99.90
53208;DHT22;39093;52.788;6.940;2023-04-01T07:15:36;10.00;99.90
53208;DHT22;39093;52.788;6.940;2023-04-01T07:20:38;10.00;99.90
53208;DHT22;39093;52.788;6.940;2023-04-01T07:23:38;10.10;99.90
53208;DHT22;39093;52.788;6.940;2023-04-01T07:26:20;10.10;99.90
53208;DHT22;39093;52.788;6.940;2023-04-01T07:28:50;10.10;99.90
53208;DHT22;39093;52.788;6.940;2023-04-01T07:36:39;10.10;99.90
53208;DHT22;39093;52.788;6.940;2023-04-01T07:42:11;10.10;99.90
53208;DHT22;39093;52.788;6.940;2023-04-01T07:44:51;10.10;99.90
53208;DHT22;39093;52.788;6.940;2023-04-01T07:47:34;10.20;99.90
53208;DHT22;39093;52.788;6.940;2023-04-01T07:50:29;10.20;99.90
53208;DHT22;39093;52.788;6.940;2023-04-01T07:55:38;10.20;99.90
53208;DHT22;39093;52.788;6.940;2023-04-01T08:06:19;10.20;99.90
53208;DHT22;39093;52.788;6.940;2023-04-01T08:09:22;10.30;99.90
53208;DHT22;39093;52.788;6.940;2023-04-01T08:23:22;10.40;99.90
53208;DHT22;39093;52.788;6.940;2023-04-01T08:28:46;10.40;99.90
53208;DHT22;39093;52.788;6.940;2023-04-01T08:31:37;10.40;99.90
53208;DHT22;39093;52.788;6.940;2023-04-01T08:34:17;10.50;99.90
53208;DHT22;39093;52.788;6.940;2023-04-01T08:37:01;10.50;99.90
53208;DHT22;39093;52.788;6.940;2023-04-01T08:39:35;10.60;99.90
53208;DHT22;39093;52.788;6.940;2023-04-01T08:56:22;10.70;99.90
53208;DHT22;39093;52.788;6.940;2023-04-01T08:58:54;10.70;99.90
53208;DHT22;39093;52.788;6.940;2023-04-01T09:04:25;10.80;99.90
53208;DHT22;39093;52.788;6.940;2023-04-01T09:20:59;10.70;99.90
53208;DHT22;39093;52.788;6.940;2023-04-01T09:28:51;10.90;99.90
53208;DHT22;39093;52.788;6.940;2023-04-01T09:45:21;11.10;99.90
53208;DHT22;39093;52.788;6.940;2023-04-01T09:48:00;11.10;99.90
53208;DHT22;39093;52.788;6.940;2023-04-01T09:50:31;11.10;99.90
53208;DHT22;39093;52.788;6.940;2023-04-01T09:53:27;11.10;99.90
53208;DHT22;39093;52.788;6.940;2023-04-01T10:01:39;11.10;99.90
53208;DHT22;39093;52.788;6.940;2023-04-01T10:16:48;11.40;99.90
53208;DHT22;39093;52.788;6.940;2023-04-01T10:22:34;11.50;99.90
53208;DHT22;39093;52.788;6.940;2023-04-01T10:25:18;11.60;99.90
53208;DHT22;39093;52.788;6.940;2023-04-01T10:31:34;11.70;99.90
53208;DHT22;39093;52.788;6.940;2023-04-01T10:34:46;11.70;99.90
53208;DHT22;39093;52.788;6.940;2023-04-01T10:36:51;11.70;99.90
53208;DHT22;39093;52.788;6.940;2023-04-01T10:39:34;11.70;99.90
53208;DHT22;39093;52.788;6.940;2023-04-01T10:48:52;11.80;99.90
53208;DHT22;39093;52.788;6.940;2023-04-01T11:11:19;12.00;99.90
53208;DHT22;39093;52.788;6.940;2023-04-01T11:16:56;12.00;99.90
53208;DHT22;39093;52.788;6.940;2023-04-01T11:22:48;12.20;99.90
53208;DHT22;39093;52.788;6.940;2023-04-01T11:25:36;12.30;99.90
53208;DHT22;39093;52.788;6.940;2023-04-01T11:36:36;12.80;99.90
53208;DHT22;39093;52.788;6.940;2023-04-01T11:42:37;12.60;99.90
53208;DHT22;39093;52.788;6.940;2023-04-01T12:00:01;11.70;99.90
53208;DHT22;39093;52.788;6.940;2023-04-01T12:08:19;11.40;99.90
53208;DHT22;39093;52.788;6.940;2023-04-01T12:11:15;11.40;99.90
53208;DHT22;39093;52.788;6.940;2023-04-01T12:13:54;11.40;99.90
53208;DHT22;39093;52.788;6.940;2023-04-01T12:30:06;11.10;99.90
53208;DHT22;39093;52.788;6.940;2023-04-01T12:38:30;11.10;99.90
53208;DHT22;39093;52.788;6.940;2023-04-01T12:44:11;11.00;99.90
53208;DHT22;39093;52.788;6.940;2023-04-01T12:46:40;11.10;99.90
53208;DHT22;39093;52.788;6.940;2023-04-01T12:52:15;11.00;99.90
53208;DHT22;39093;52.788;6.940;2023-04-01T12:55:05;11.00;99.90
53208;DHT22;39093;52.788;6.940;2023-04-01T13:09:07;10.80;99.90
53208;DHT22;39093;52.788;6.940;2023-04-01T13:18:09;10.80;99.90
53208;DHT22;39093;52.788;6.940;2023-04-01T13:23:36;10.60;99.90
53208;DHT22;39093;52.788;6.940;2023-04-01T13:26:16;10.60;99.90
53208;DHT22;39093;52.788;6.940;2023-04-01T13:34:27;10.40;99.90
53208;DHT22;39093;52.788;6.940;2023-04-01T13:42:31;10.30;99.90
53208;DHT22;39093;52.788;6.940;2023-04-01T13:45:15;10.20;99.90
53208;DHT22;39093;52.788;6.940;2023-04-01T13:48:14;10.20;99.90
53208;DHT22;39093;52.788;6.940;2023-04-01T13:51:00;10.20;99.90
53208;DHT22;39093;52.788;6.940;2023-04-01T14:12:54;10.50;99.90
53208;DHT22;39093;52.788;6.940;2023-04-01T14:18:01;10.50;99.90
53208;DHT22;39093;52.788;6.940;2023-04-01T14:23:49;10.60;99.90
53208;DHT22;39093;52.788;6.940;2023-04-01T14:35:20;10.50;99.90
53208;DHT22;39093;52.788;6.940;2023-04-01T14:41:04;10.40;99.90
53208;DHT22;39093;52.788;6.940;2023-04-01T14:46:34;10.30;99.90
53208;DHT22;39093;52.788;6.940;2023-04-01T14:49:48;10.30;99.90
53208;DHT22;39093;52.788;6.940;2023-04-01T14:52:27;10.20;99.90
53208;DHT22;39093;52.788;6.940;2023-04-01T14:54:56;10.20;99.90
53208;DHT22;39093;52.788;6.940;2023-04-01T14:57:26;10.20;99.90
53208;DHT22;39093;52.788;6.940;2023-04-01T15:00:09;10.10;99.90
53208;DHT22;39093;52.788;6.940;2023-04-01T15:02:45;10.10;99.90
53208;DHT22;39093;52.788;6.940;2023-04-01T15:08:30;10.10;99.90
53208;DHT22;39093;52.788;6.940;2023-04-01T15:11:33;10.00;99.90
53208;DHT22;39093;52.788;6.940;2023-04-01T15:14:23;10.00;99.90
53208;DHT22;39093;52.788;6.940;2023-04-01T15:17:13;10.00;99.90
53208;DHT22;39093;52.788;6.940;2023-04-01T15:23:05;9.90;99.90
53208;DHT22;39093;52.788;6.940;2023-04-01T15:31:11;9.90;99.90
53208;DHT22;39093;52.788;6.940;2023-04-01T15:33:53;9.80;99.90
53208;DHT22;39093;52.788;6.940;2023-04-01T15:42:54;9.70;99.90
53208;DHT22;39093;52.788;6.940;2023-04-01T15:48:31;9.70;99.90
53208;DHT22;39093;52.788;6.940;2023-04-01T15:54:04;9.60;99.90
53208;DHT22;39093;52.788;6.940;2023-04-01T16:18:54;9.30;99.90
53208;DHT22;39093;52.788;6.940;2023-04-01T16:21:36;9.30;99.90
53208;DHT22;39093;52.788;6.940;2023-04-01T16:24:22;9.30;99.90
53208;DHT22;39093;52.788;6.940;2023-04-01T16:32:37;9.20;99.90
53208;DHT22;39093;52.788;6.940;2023-04-01T16:37:52;9.10;99.90
53208;DHT22;39093;52.788;6.940;2023-04-01T16:43:28;9.10;99.90
53208;DHT22;39093;52.788;6.940;2023-04-01T16:46:19;9.10;99.90
53208;DHT22;39093;52.788;6.940;2023-04-01T16:49:17;9.00;99.90
53208;DHT22;39093;52.788;6.940;2023-04-01T16:59:38;8.90;99.90
53208;DHT22;39093;52.788;6.940;2023-04-01T17:04:57;8.90;99.90
53208;DHT22;39093;52.788;6.940;2023-04-01T17:14:01;8.70;99.90
53208;DHT22;39093;52.788;6.940;2023-04-01T17:16:56;8.70;99.90
53208;DHT22;39093;52.788;6.940;2023-04-01T17:22:19;8.70;99.90
53208;DHT22;39093;52.788;6.940;2023-04-01T17:24:55;8.60;99.90
53208;DHT22;39093;52.788;6.940;2023-04-01T17:33:31;8.50;99.90
53208;DHT22;39093;52.788;6.940;2023-04-01T17:36:13;8.50;99.90
53208;DHT22;39093;52.788;6.940;2023-04-01T17:41:53;8.30;99.90
53208;DHT22;39093;52.788;6.940;2023-04-01T17:44:32;8.30;99.90
53208;DHT22;39093;52.788;6.940;2023-04-01T17:53:11;8.20;99.90
53208;DHT22;39093;52.788;6.940;2023-04-01T17:56:00;8.20;99.90
53208;DHT22;39093;52.788;6.940;2023-04-01T17:59:09;8.20;99.90
53208;DHT22;39093;52.788;6.940;2023-04-01T18:05:17;8.10;99.90
53208;DHT22;39093;52.788;6.940;2023-04-01T18:08:17;8.10;99.90
53208;DHT22;39093;52.788;6.940;2023-04-01T18:27:45;7.80;99.90
53208;DHT22;39093;52.788;6.940;2023-04-01T18:30:27;7.80;99.90
53208;DHT22;39093;52.788;6.940;2023-04-01T18:33:21;7.80;99.90
53208;DHT22;39093;52.788;6.940;2023-04-01T18:38:33;7.80;99.90
53208;DHT22;39093;52.788;6.940;2023-04-01T18:41:30;7.80;99.90
53208;DHT22;39093;52.788;6.940;2023-04-01T18:49:55;7.70;99.90
53208;DHT22;39093;52.788;6.940;2023-04-01T18:52:44;7.70;99.90
53208;DHT22;39093;52.788;6.940;2023-04-01T18:58:10;7.60;99.90
53208;DHT22;39093;52.788;6.940;2023-04-01T19:00:39;7.50;99.90
53208;DHT22;39093;52.788;6.940;2023-04-01T19:03:28;7.50;99.90
53208;DHT22;39093;52.788;6.940;2023-04-01T19:06:02;7.50;99.90
53208;DHT22;39093;52.788;6.940;2023-04-01T19:08:41;7.50;99.90
53208;DHT22;39093;52.788;6.940;2023-04-01T19:11:30;7.50;99.90
53208;DHT22;39093;52.788;6.940;2023-04-01T19:19:54;7.40;99.90
53208;DHT22;39093;52.788;6.940;2023-04-01T19:25:21;7.30;99.90
53208;DHT22;39093;52.788;6.940;2023-04-01T19:28:04;7.30;99.90
53208;DHT22;39093;52.788;6.940;2023-04-01T19:30:50;7.30;99.90
53208;DHT22;39093;52.788;6.940;2023-04-01T19:39:05;7.20;99.90
53208;DHT22;39093;52.788;6.940;2023-04-01T19:41:44;7.20;99.90
53208;DHT22;39093;52.788;6.940;2023-04-01T19:47:45;7.20;99.90
53208;DHT22;39093;52.788;6.940;2023-04-01T19:50:34;7.10;99.90
53208;DHT22;39093;52.788;6.940;2023-04-01T19:56:17;7.10;99.90
53208;DHT22;39093;52.788;6.940;2023-04-01T19:58:54;7.10;99.90
53208;DHT22;39093;52.788;6.940;2023-04-01T20:04:42;7.10;99.90
53208;DHT22;39093;52.788;6.940;2023-04-01T20:09:44;7.10;99.90
53208;DHT22;39093;52.788;6.940;2023-04-01T20:17:53;7.00;99.90
53208;DHT22;39093;52.788;6.940;2023-04-01T20:20:24;7.00;99.90
53208;DHT22;39093;52.788;6.940;2023-04-01T20:23:05;7.00;99.90
53208;DHT22;39093;52.788;6.940;2023-04-01T20:25:52;7.00;99.90
53208;DHT22;39093;52.788;6.940;2023-04-01T20:28:28;7.00;99.90
53208;DHT22;39093;52.788;6.940;2023-04-01T20:39:23;6.90;99.90
53208;DHT22;39093;52.788;6.940;2023-04-01T20:45:28;6.90;99.90
53208;DHT22;39093;52.788;6.940;2023-04-01T20:50:53;6.90;99.90
53208;DHT22;39093;52.788;6.940;2023-04-01T21:04:44;6.70;99.90
53208;DHT22;39093;52.788;6.940;2023-04-01T21:07:41;6.70;99.90
53208;DHT22;39093;52.788;6.940;2023-04-01T21:17:00;6.70;99.90
53208;DHT22;39093;52.788;6.940;2023-04-01T21:25:39;6.60;99.90
53208;DHT22;39093;52.788;6.940;2023-04-01T21:36:20;6.60;99.90
53208;DHT22;39093;52.788;6.940;2023-04-01T21:39:12;6.60;99.90
53208;DHT22;39093;52.788;6.940;2023-04-01T22:07:15;6.40;99.90
53208;DHT22;39093;52.788;6.940;2023-04-01T22:10:03;6.30;99.90
53208;DHT22;39093;52.788;6.940;2023-04-01T22:12:41;6.30;99.90
53208;DHT22;39093;52.788;6.940;2023-04-01T22:15:16;6.30;99.90
53208;DHT22;39093;52.788;6.940;2023-04-01T22:17:54;6.30;99.90
53208;DHT22;39093;52.788;6.940;2023-04-01T22:20:36;6.30;99.90
53208;DHT22;39093;52.788;6.940;2023-04-01T22:32:46;6.20;99.90
53208;DHT22;39093;52.788;6.940;2023-04-01T22:35:23;6.10;99.90
53208;DHT22;39093;52.788;6.940;2023-04-01T22:41:01;6.10;99.90
53208;DHT22;39093;52.788;6.940;2023-04-01T22:43:41;6.10;99.90
53208;DHT22;39093;52.788;6.940;2023-04-01T22:46:23;6.10;99.90
53208;DHT22;39093;52.788;6.940;2023-04-01T22:49:11;6.10;99.90
53208;DHT22;39093;52.788;6.940;2023-04-01T22:56:55;6.10;99.90
53208;DHT22;39093;52.788;6.940;2023-04-01T22:59:52;6.10;99.90
53208;DHT22;39093;52.788;6.940;2023-04-01T23:04:55;6.00;99.90
53208;DHT22;39093;52.788;6.940;2023-04-01T23:07:44;6.10;99.90
53208;DHT22;39093;52.788;6.940;2023-04-01T23:12:57;6.00;99.90
53208;DHT22;39093;52.788;6.940;2023-04-01T23:15:25;6.10;99.90
53208;DHT22;39093;52.788;6.940;2023-04-01T23:18:14;6.00;99.90
53208;DHT22;39093;52.788;6.940;2023-04-01T23:20:58;6.00;99.90
53208;DHT22;39093;52.788;6.940;2023-04-01T23:24:22;6.00;99.90
53208;DHT22;39093;52.788;6.940;2023-04-01T23:28:59;5.90;99.90
53208;DHT22;39093;52.788;6.940;2023-04-01T23:34:16;6.10;99.90
53208;DHT22;39093;52.788;6.940;2023-04-01T23:36:49;5.90;99.90
53208;DHT22;39093;52.788;6.940;2023-04-01T23:39:30;5.80;99.90
53208;DHT22;39093;52.788;6.940;2023-04-01T23:42:04;5.90;99.90
53208;DHT22;39093;52.788;6.940;2023-04-01T23:44:33;5.60;99.90
53208;DHT22;39093;52.788;6.940;2023-04-01T23:47:02;5.90;99.90
53208;DHT22;39093;52.788;6.940;2023-04-01T23:49:39;5.80;99.90
53208;DHT22;39093;52.788;6.940;2023-04-01T23:54:56;5.80;99.90
53208;DHT22;39093;52.788;6.940;2023-04-01T23:57:31;5.80;99.90
